createdAt,value
2022-09-26T00:00:26.953Z,8.30
2022-09-26T00:03:19.041Z,6.85
2022-09-26T00:06:00.940Z,6.47
2022-09-26T00:08:49.630Z,8.13
2022-09-26T00:11:35.929Z,7.80
2022-09-26T00:14:30.655Z,6.80
2022-09-26T00:17:13.134Z,5.35
2022-09-26T00:20:02.659Z,9.68
2022-09-26T00:22:51.548Z,6.10
2022-09-26T00:25:40.678Z,8.27
2022-09-26T00:28:23.916Z,6.78
2022-09-26T00:31:18.774Z,7.53
2022-09-26T00:34:00.985Z,7.28
2022-09-26T00:36:49.637Z,9.43
2022-09-26T00:39:31.917Z,9.07
2022-09-26T00:42:24.640Z,9.57
2022-09-26T00:45:07.162Z,7.00
2022-09-26T00:48:08.001Z,10.00
2022-09-26T00:50:57.619Z,6.38
2022-09-26T00:53:45.145Z,6.75
2022-09-26T00:57:00.855Z,6.32
2022-09-26T00:59:56.651Z,10.80
2022-09-26T01:02:39.317Z,10.80
2022-09-26T01:05:30.647Z,12.23
2022-09-26T01:08:14.060Z,15.40
2022-09-26T01:11:03.911Z,11.32
2022-09-26T01:13:45.957Z,9.50
2022-09-26T01:16:35.554Z,10.80
2022-09-26T01:19:47.550Z,11.18
2022-09-26T01:23:25.917Z,12.45
2022-09-26T01:26:31.558Z,14.55
2022-09-26T01:29:49.623Z,10.30
2022-09-26T01:32:50.137Z,16.05
2022-09-26T01:35:51.544Z,23.42
2022-09-26T01:38:51.921Z,15.30
2022-09-26T01:41:46.543Z,14.77
2022-09-26T01:44:52.031Z,15.75
2022-09-26T01:48:00.548Z,17.45
2022-09-26T01:50:50.944Z,14.63
2022-09-26T01:54:11.635Z,16.40
2022-09-26T01:56:58.549Z,20.23
2022-09-26T01:59:52.645Z,17.80
2022-09-26T02:02:43.026Z,21.63
2022-09-26T02:06:00.741Z,14.98
2022-09-26T02:09:00.890Z,18.55
2022-09-26T02:11:53.550Z,17.88
2022-09-26T02:17:41.901Z,17.40
2022-09-26T02:20:31.911Z,20.38
2022-09-26T02:23:20.542Z,20.05
2022-09-26T02:26:02.917Z,20.33
2022-09-26T02:28:51.676Z,16.63
2022-09-26T02:31:40.948Z,22.67
2022-09-26T02:34:30.674Z,20.70
2022-09-26T02:37:14.466Z,23.30
2022-09-26T02:40:04.672Z,20.70
2022-09-26T02:42:59.217Z,22.92
2022-09-26T02:45:57.711Z,18.90
2022-09-26T02:49:07.045Z,24.00
2022-09-26T02:52:09.692Z,19.63
2022-09-26T02:55:09.898Z,22.15
2022-09-26T02:58:23.538Z,23.30
2022-09-26T03:01:40.740Z,23.15
2022-09-26T03:04:51.682Z,22.75
2022-09-26T03:07:43.957Z,21.92
2022-09-26T03:10:35.633Z,20.60
2022-09-26T03:13:23.917Z,32.42
2022-09-26T03:16:13.677Z,23.85
2022-09-26T03:19:03.937Z,28.23
2022-09-26T03:21:52.529Z,28.15
2022-09-26T03:24:35.911Z,29.98
2022-09-26T03:27:25.605Z,27.35
2022-09-26T03:30:07.931Z,36.90
2022-09-26T03:33:05.686Z,26.10
2022-09-26T03:35:47.921Z,32.72
2022-09-26T03:38:37.522Z,29.52
2022-09-26T03:41:51.546Z,48.35
2022-09-26T03:44:42.610Z,84.75
2022-09-26T03:47:39.389Z,80.75
2022-09-26T03:50:28.633Z,80.43
2022-09-26T03:53:17.615Z,79.95
2022-09-26T03:56:17.616Z,75.25
2022-09-26T03:59:00.903Z,77.00
2022-09-26T04:01:49.648Z,63.58
2022-09-26T04:04:33.290Z,60.22
2022-09-26T04:07:24.628Z,60.08
2022-09-26T04:10:06.925Z,57.50
2022-09-26T04:12:55.612Z,51.40
2022-09-26T04:15:38.729Z,50.55
2022-09-26T04:18:28.634Z,43.17
2022-09-26T04:21:19.964Z,41.65
2022-09-26T04:24:08.614Z,46.65
2022-09-26T04:26:54.128Z,41.45
2022-09-26T04:29:43.625Z,39.22
2022-09-26T04:32:57.894Z,36.47
2022-09-26T04:35:59.615Z,38.50
2022-09-26T04:38:42.142Z,33.00
2022-09-26T04:41:31.629Z,45.10
2022-09-26T04:44:20.625Z,35.55
2022-09-26T04:47:09.450Z,32.88
2022-09-26T04:50:11.648Z,34.95
2022-09-26T04:53:10.882Z,31.60
2022-09-26T04:56:15.650Z,33.83
2022-09-26T04:59:06.559Z,32.28
2022-09-26T05:02:08.687Z,26.98
2022-09-26T05:04:52.481Z,34.38
2022-09-26T05:07:42.651Z,39.53
2022-09-26T05:10:31.925Z,27.75
2022-09-26T05:13:15.533Z,27.75
2022-09-26T05:16:00.333Z,27.48
2022-09-26T05:18:59.665Z,31.83
2022-09-26T05:21:50.941Z,32.63
2022-09-26T05:24:51.640Z,27.02
2022-09-26T05:27:33.915Z,25.23
2022-09-26T05:30:22.681Z,33.60
2022-09-26T05:33:06.383Z,27.98
2022-09-26T05:35:55.555Z,31.10
2022-09-26T05:38:38.124Z,25.75
2022-09-26T05:41:28.621Z,29.85
2022-09-26T05:44:16.919Z,26.70
2022-09-26T05:47:00.614Z,30.33
2022-09-26T05:49:51.631Z,32.65
2022-09-26T05:52:36.931Z,31.50
2022-09-26T05:55:33.713Z,27.77
2022-09-26T05:58:32.387Z,32.50
2022-09-26T06:01:54.566Z,23.73
2022-09-26T06:04:59.961Z,22.25
2022-09-26T06:08:03.738Z,15.82
2022-09-26T06:10:56.946Z,17.27
2022-09-26T06:13:45.963Z,15.67
2022-09-26T06:16:30.071Z,16.02
2022-09-26T06:19:22.780Z,14.77
2022-09-26T06:22:04.970Z,13.68
2022-09-26T06:24:53.677Z,17.90
2022-09-26T06:27:41.876Z,14.30
2022-09-26T06:30:31.666Z,15.30
2022-09-26T06:33:46.666Z,17.52
2022-09-26T06:36:47.582Z,12.07
2022-09-26T06:39:43.638Z,15.70
2022-09-26T06:42:31.921Z,14.15
2022-09-26T06:45:34.685Z,18.52
2022-09-26T06:48:31.861Z,12.50
2022-09-26T06:51:45.730Z,13.32
2022-09-26T06:54:28.883Z,12.93
2022-09-26T06:57:21.715Z,11.70
2022-09-26T07:00:11.024Z,11.85
2022-09-26T07:03:12.687Z,15.60
2022-09-26T07:05:59.048Z,13.75
2022-09-26T07:09:01.998Z,12.75
2022-09-26T07:12:22.659Z,13.77
2022-09-26T07:15:05.968Z,19.08
2022-09-26T07:17:58.677Z,17.77
2022-09-26T07:21:05.583Z,15.73
2022-09-26T07:24:00.893Z,14.75
2022-09-26T07:26:50.596Z,15.45
2022-09-26T07:29:40.625Z,13.35
2022-09-26T07:32:26.686Z,13.10
2022-09-26T07:35:22.848Z,12.05
2022-09-26T07:38:12.948Z,14.63
2022-09-26T07:41:09.531Z,13.45
2022-09-26T07:47:19.496Z,15.63
2022-09-26T07:50:23.713Z,12.15
2022-09-26T07:53:21.918Z,11.50
2022-09-26T07:56:42.737Z,11.93
2022-09-26T07:59:37.837Z,13.50
2022-09-26T08:02:59.606Z,12.25
2022-09-26T08:05:52.669Z,11.52
2022-09-26T08:08:42.471Z,9.00
2022-09-26T08:11:44.625Z,10.05
2022-09-26T08:14:51.208Z,9.77
2022-09-26T08:17:51.693Z,13.88
2022-09-26T08:20:40.954Z,16.90
2022-09-26T08:23:25.626Z,9.32
2022-09-26T08:26:25.838Z,10.82
2022-09-26T08:29:25.639Z,10.88
2022-09-26T08:32:13.951Z,10.05
2022-09-26T08:34:56.661Z,11.10
2022-09-26T08:38:04.820Z,12.02
2022-09-26T08:41:12.562Z,12.25
2022-09-26T08:44:37.882Z,11.77
2022-09-26T08:48:10.625Z,11.77
2022-09-26T08:51:24.370Z,11.15
2022-09-26T08:54:26.572Z,11.85
2022-09-26T08:57:42.934Z,11.63
2022-09-26T09:00:31.647Z,13.98
2022-09-26T09:03:41.950Z,14.50
2022-09-26T09:06:25.629Z,11.60
2022-09-26T09:09:14.921Z,16.60
2022-09-26T09:12:51.622Z,12.60
2022-09-26T09:16:22.510Z,16.95
2022-09-26T09:19:59.651Z,14.65
2022-09-26T09:23:36.215Z,10.52
2022-09-26T09:30:24.754Z,15.18
2022-09-26T09:33:43.707Z,12.40
2022-09-26T09:36:36.238Z,16.20
2022-09-26T09:39:41.711Z,15.57
2022-09-26T09:42:43.470Z,13.52
2022-09-26T09:45:35.678Z,15.90
2022-09-26T09:48:19.978Z,14.40
2022-09-26T09:51:25.633Z,12.88
2022-09-26T09:54:47.929Z,17.48
2022-09-26T09:57:54.141Z,16.75
2022-09-26T10:00:49.045Z,21.60
2022-09-26T10:04:12.609Z,23.38
2022-09-26T10:07:03.667Z,19.38
2022-09-26T10:09:55.184Z,23.98
2022-09-26T10:13:13.648Z,25.63
2022-09-26T10:16:21.684Z,27.50
2022-09-26T10:19:23.622Z,22.60
2022-09-26T10:22:10.517Z,25.58
2022-09-26T10:25:02.644Z,22.67
2022-09-26T10:28:03.810Z,27.10
2022-09-26T10:30:57.647Z,26.73
2022-09-26T10:34:00.546Z,26.13
2022-09-26T10:36:47.928Z,37.45
2022-09-26T10:39:56.645Z,26.55
2022-09-26T10:42:49.086Z,33.00
2022-09-26T10:45:36.630Z,35.28
2022-09-26T10:49:04.629Z,31.27
2022-09-26T10:52:13.594Z,32.03
2022-09-26T10:55:33.546Z,35.35
2022-09-26T10:58:31.640Z,40.83
2022-09-26T11:01:31.356Z,42.67
2022-09-26T11:04:49.551Z,31.20
2022-09-26T11:08:01.598Z,36.97
2022-09-26T11:10:55.914Z,31.63
2022-09-26T11:14:16.632Z,32.70
2022-09-26T11:17:15.576Z,27.02
2022-09-26T11:20:10.652Z,32.15
2022-09-26T11:23:07.814Z,36.30
2022-09-26T11:26:26.705Z,37.53
2022-09-26T11:29:26.928Z,36.83
2022-09-26T11:32:40.666Z,36.03
2022-09-26T11:35:45.061Z,32.03
2022-09-26T11:38:46.679Z,35.33
2022-09-26T11:41:56.918Z,37.95
2022-09-26T11:45:26.654Z,35.53
2022-09-26T11:49:02.152Z,37.95
2022-09-26T11:52:37.622Z,47.42
2022-09-26T11:55:46.634Z,45.80
2022-09-26T11:58:28.881Z,46.13
2022-09-26T12:01:44.132Z,47.40
2022-09-26T12:04:55.197Z,54.70
2022-09-26T12:07:56.650Z,56.95
2022-09-26T12:10:40.510Z,50.75
2022-09-26T12:13:48.648Z,47.45
2022-09-26T12:16:37.103Z,59.20
2022-09-26T12:19:35.679Z,57.20
2022-09-26T12:22:38.161Z,53.85
2022-09-26T12:25:42.665Z,54.42
2022-09-26T12:28:58.990Z,59.30
2022-09-26T12:32:16.711Z,53.47
2022-09-26T12:35:32.927Z,68.28
2022-09-26T12:38:28.633Z,61.63
2022-09-26T12:41:33.534Z,67.50
2022-09-26T12:44:47.667Z,64.28
2022-09-26T12:47:38.972Z,59.58
2022-09-26T12:50:33.548Z,58.83
2022-09-26T12:53:36.965Z,60.92
2022-09-26T12:56:49.638Z,63.87
2022-09-26T12:59:44.389Z,63.70
2022-09-26T13:02:51.701Z,54.13
2022-09-26T13:05:52.055Z,56.60
2022-09-26T13:09:12.796Z,53.58
2022-09-26T13:12:17.940Z,61.73
2022-09-26T13:15:08.717Z,48.85
2022-09-26T13:17:56.030Z,53.50
2022-09-26T13:21:02.640Z,48.33
2022-09-26T13:24:20.051Z,51.63
2022-09-26T13:27:37.704Z,44.03
2022-09-26T13:30:36.835Z,48.42
2022-09-26T13:33:33.576Z,40.75
2022-09-26T13:36:18.142Z,48.22
2022-09-26T13:39:11.620Z,41.88
2022-09-26T13:42:21.009Z,33.83
2022-09-26T13:45:24.690Z,38.75
2022-09-26T13:48:37.370Z,37.47
2022-09-26T13:51:39.385Z,37.22
2022-09-26T13:54:34.688Z,33.13
2022-09-26T13:57:40.959Z,36.53
2022-09-26T14:00:37.643Z,27.30
2022-09-26T14:03:24.361Z,32.22
2022-09-26T14:06:25.635Z,29.90
2022-09-26T14:09:27.646Z,24.55
2022-09-26T14:12:38.603Z,23.80
2022-09-26T14:15:56.225Z,27.83
2022-09-26T14:19:09.685Z,34.05
2022-09-26T14:22:10.001Z,28.85
2022-09-26T14:25:00.703Z,28.38
2022-09-26T14:27:44.123Z,32.90
2022-09-26T14:30:41.694Z,36.83
2022-09-26T14:33:30.602Z,34.35
2022-09-26T14:36:38.994Z,30.23
2022-09-26T14:39:51.692Z,27.55
2022-09-26T14:42:59.234Z,31.27
2022-09-26T14:45:45.664Z,32.63
2022-09-26T14:48:46.636Z,24.92
2022-09-26T14:51:46.685Z,38.85
2022-09-26T14:54:41.393Z,35.45
2022-09-26T14:57:46.660Z,27.45
2022-09-26T15:00:41.518Z,30.58
2022-09-26T15:03:34.678Z,30.45
2022-09-26T15:06:23.984Z,23.65
2022-09-26T15:09:15.771Z,33.20
2022-09-26T15:12:05.579Z,30.77
2022-09-26T15:15:11.618Z,32.20
2022-09-26T15:18:11.562Z,33.33
2022-09-26T15:21:04.644Z,25.50
2022-09-26T15:23:59.564Z,46.45
2022-09-26T15:26:44.994Z,27.08
2022-09-26T15:29:34.645Z,32.55
2022-09-26T15:32:33.749Z,27.75
2022-09-26T15:35:19.923Z,28.85
2022-09-26T15:38:24.585Z,31.40
2022-09-26T15:41:20.534Z,24.38
2022-09-26T15:44:16.701Z,26.75
2022-09-26T15:47:06.049Z,24.95
2022-09-26T15:49:48.583Z,25.10
2022-09-26T15:52:36.363Z,26.92
2022-09-26T15:55:41.585Z,30.77
2022-09-26T15:59:06.687Z,25.80
2022-09-26T16:01:56.260Z,24.00
2022-09-26T16:04:41.622Z,22.50
2022-09-26T16:07:38.915Z,49.75
2022-09-26T16:10:41.604Z,27.00
2022-09-26T16:13:33.951Z,27.20
2022-09-26T16:16:24.590Z,41.38
2022-09-26T16:19:15.476Z,37.47
2022-09-26T16:22:04.506Z,36.40
2022-09-26T16:24:47.143Z,29.55
2022-09-26T16:27:41.577Z,36.15
2022-09-26T16:30:27.545Z,30.60
2022-09-26T16:33:23.622Z,25.63
2022-09-26T16:36:23.101Z,29.77
2022-09-26T16:39:12.625Z,26.48
2022-09-26T16:42:28.593Z,34.40
2022-09-26T16:45:23.882Z,32.25
2022-09-26T16:48:07.606Z,31.10
2022-09-26T16:50:56.999Z,31.70
2022-09-26T16:53:39.626Z,39.47
2022-09-26T16:56:33.214Z,48.58
2022-09-26T16:59:42.686Z,38.42
2022-09-26T17:02:32.067Z,29.13
2022-09-26T17:05:26.742Z,37.17
2022-09-26T17:08:19.961Z,32.70
2022-09-26T17:11:05.550Z,34.63
2022-09-26T17:13:51.367Z,41.58
2022-09-26T17:16:41.637Z,36.35
2022-09-26T17:19:33.144Z,29.73
2022-09-26T17:22:22.678Z,36.55
2022-09-26T17:25:12.098Z,33.58
2022-09-26T17:27:59.684Z,38.30
2022-09-26T17:30:48.561Z,32.75
2022-09-26T17:33:36.998Z,37.47
2022-09-26T17:36:30.639Z,34.15
2022-09-26T17:39:19.593Z,34.45
2022-09-26T17:42:14.650Z,32.88
2022-09-26T17:45:03.538Z,42.03
2022-09-26T17:47:47.054Z,29.80
2022-09-26T17:50:38.636Z,41.23
2022-09-26T17:53:25.040Z,34.20
2022-09-26T17:56:15.595Z,35.90
2022-09-26T17:59:00.172Z,24.77
2022-09-26T18:01:48.700Z,23.20
2022-09-26T18:04:33.152Z,28.55
2022-09-26T18:07:22.635Z,23.73
2022-09-26T18:10:14.653Z,26.90
2022-09-26T18:13:00.174Z,23.98
2022-09-26T18:15:48.607Z,28.60
2022-09-26T18:18:39.586Z,29.60
2022-09-26T18:21:33.636Z,28.63
2022-09-26T18:24:19.818Z,30.58
2022-09-26T18:27:14.612Z,29.63
2022-09-26T18:30:03.624Z,29.27
2022-09-26T18:32:49.076Z,31.40
2022-09-26T18:35:37.626Z,27.80
2022-09-26T18:38:27.602Z,26.73
2022-09-26T18:41:18.627Z,33.85
2022-09-26T18:44:17.605Z,24.85
2022-09-26T18:47:08.911Z,29.02
2022-09-26T18:49:55.613Z,38.60
2022-09-26T18:52:38.202Z,29.48
2022-09-26T18:55:52.624Z,29.90
2022-09-26T18:58:49.594Z,34.08
2022-09-26T19:01:41.055Z,37.53
2022-09-26T19:04:29.596Z,37.85
2022-09-26T19:07:14.254Z,36.17
2022-09-26T19:10:06.494Z,33.60
2022-09-26T19:12:49.525Z,31.50
2022-09-26T19:15:38.563Z,38.55
2022-09-26T19:18:20.850Z,33.95
2022-09-26T19:21:09.595Z,28.13
2022-09-26T19:24:00.038Z,34.10
2022-09-26T19:26:49.697Z,39.45
2022-09-26T19:29:35.409Z,27.98
2022-09-26T19:32:50.627Z,31.17
2022-09-26T19:35:40.505Z,38.70
2022-09-26T19:38:36.540Z,28.73
2022-09-26T19:41:24.955Z,33.42
2022-09-26T19:44:14.805Z,31.35
2022-09-26T19:46:57.472Z,32.42
2022-09-26T19:49:46.584Z,30.73
2022-09-26T19:52:28.883Z,33.38
2022-09-26T19:55:24.584Z,28.75
2022-09-26T19:58:29.005Z,35.55
2022-09-26T20:01:26.539Z,28.98
2022-09-26T20:04:09.824Z,28.52
2022-09-26T20:06:58.544Z,27.52
2022-09-26T20:09:41.339Z,34.33
2022-09-26T20:12:30.659Z,32.35
2022-09-26T20:15:14.313Z,33.67
2022-09-26T20:18:06.988Z,26.45
2022-09-26T20:20:49.921Z,35.22
2022-09-26T20:23:38.496Z,29.83
2022-09-26T20:26:27.635Z,38.08
2022-09-26T20:29:15.100Z,34.05
2022-09-26T20:32:03.530Z,35.55
2022-09-26T20:34:51.889Z,35.45
2022-09-26T20:37:39.505Z,31.17
2022-09-26T20:40:25.276Z,34.55
2022-09-26T20:43:22.613Z,36.42
2022-09-26T20:46:06.878Z,30.23
2022-09-26T20:48:57.577Z,37.92
2022-09-26T20:51:39.872Z,32.10
2022-09-26T20:54:40.889Z,32.80
2022-09-26T20:57:31.268Z,32.10
2022-09-26T21:00:15.714Z,34.95
2022-09-26T21:03:03.914Z,34.13
2022-09-26T21:05:46.493Z,30.92
2022-09-26T21:08:31.513Z,30.95
2022-09-26T21:11:20.608Z,31.63
2022-09-26T21:14:02.867Z,27.80
2022-09-26T21:16:59.649Z,39.08
2022-09-26T21:19:41.866Z,29.30
2022-09-26T21:22:50.604Z,32.05
2022-09-26T21:25:39.885Z,32.85
2022-09-26T21:28:36.501Z,28.63
2022-09-26T21:31:52.895Z,29.48
2022-09-26T21:37:35.873Z,27.00
2022-09-26T21:40:25.618Z,29.13
2022-09-26T21:43:28.439Z,33.17
2022-09-26T21:46:17.599Z,28.73
2022-09-26T21:49:00.907Z,29.60
2022-09-26T21:51:50.617Z,28.70
2022-09-26T21:54:40.886Z,33.45
2022-09-26T21:57:34.511Z,36.03
2022-09-26T22:00:17.875Z,32.47
2022-09-26T22:03:07.497Z,37.47
2022-09-26T22:05:49.932Z,36.40
2022-09-26T22:08:38.598Z,33.88
2022-09-26T22:11:27.506Z,38.22
2022-09-26T22:14:16.627Z,29.63
2022-09-26T22:17:00.212Z,35.85
2022-09-26T22:20:07.624Z,32.00
2022-09-26T22:22:49.920Z,33.72
2022-09-26T22:25:42.662Z,35.03
2022-09-26T22:28:24.887Z,33.83
2022-09-26T22:31:13.639Z,36.97
2022-09-26T22:34:02.506Z,34.05
2022-09-26T22:36:51.643Z,31.02
2022-09-26T22:39:34.064Z,27.92
2022-09-26T22:42:22.590Z,33.50
2022-09-26T22:45:11.663Z,29.83
2022-09-26T22:47:59.874Z,33.60
2022-09-26T22:50:42.575Z,32.20
2022-09-26T22:53:24.831Z,35.78
2022-09-26T22:56:14.495Z,37.97
2022-09-26T22:59:03.512Z,40.78
2022-09-26T23:01:46.980Z,40.60
2022-09-26T23:04:54.481Z,47.22
2022-09-26T23:07:36.888Z,34.58
2022-09-26T23:10:29.480Z,41.50
2022-09-26T23:13:11.908Z,45.70
2022-09-26T23:16:00.597Z,40.88
2022-09-26T23:18:53.783Z,49.63
2022-09-26T23:21:42.481Z,46.47
2022-09-26T23:24:25.942Z,52.03
2022-09-26T23:27:14.604Z,62.70
2022-09-26T23:29:56.909Z,49.83
2022-09-26T23:32:45.621Z,48.70
2022-09-26T23:35:27.891Z,48.42
2022-09-26T23:38:16.569Z,51.75
2022-09-26T23:40:59.061Z,58.38
2022-09-26T23:43:47.500Z,54.10
2022-09-26T23:46:29.913Z,64.38
2022-09-26T23:49:18.875Z,54.30
2022-09-26T23:52:00.927Z,53.17
2022-09-26T23:54:50.632Z,53.43
2022-09-26T23:57:32.896Z,58.75
